Time;durP1;ratioP1;P1;durP2;ratioP2;P2;SDS_P1;SDS_P2;PMS_P1;PMS_P2;Temp;Humidity;BMP_temperature;BMP_pressure;BME280_temperature;BME280_humidity;BME280_pressure;Samples;Min_cycle;Max_cycle;Signal;HPM_P1;HPM_P2
2023/09/22 00:00:59;;;;;;;3.80;0.90;;;18.90;82.10;;;;;;5089510;28;20457;-77
2023/09/22 00:03:29;;;;;;;3.80;1.00;;;18.90;82.10;;;;;;5075675;28;20518;-79
2023/09/22 00:05:57;;;;;;;4.40;0.77;;;18.90;82.00;;;;;;5090302;28;20540;-79
2023/09/22 00:08:25;;;;;;;4.90;0.90;;;18.90;82.00;;;;;;5093216;28;20481;-80
2023/09/22 00:10:54;;;;;;;3.77;0.90;;;18.90;82.00;;;;;;5089475;28;20460;-79
2023/09/22 00:13:22;;;;;;;3.50;0.87;;;18.90;82.00;;;;;;5089111;28;20448;-77
2023/09/22 00:15:52;;;;;;;5.50;1.10;;;18.90;82.00;;;;;;5093065;28;20449;-78
2023/09/22 00:18:20;;;;;;;4.37;1.07;;;18.90;82.00;;;;;;5086647;28;20477;-78
2023/09/22 00:20:48;;;;;;;3.80;0.93;;;18.90;82.00;;;;;;5075151;28;20469;-77
2023/09/22 00:23:16;;;;;;;4.27;1.03;;;18.80;82.00;;;;;;5090522;28;20465;-78
2023/09/22 00:25:44;;;;;;;4.40;0.73;;;18.80;82.00;;;;;;5090772;28;20447;-77
2023/09/22 00:28:14;;;;;;;4.00;0.93;;;18.80;82.10;;;;;;5096352;28;20807;-79
2023/09/22 00:30:42;;;;;;;4.30;1.20;;;18.80;82.10;;;;;;5072028;28;20552;-77
2023/09/22 00:33:12;;;;;;;5.00;0.97;;;18.80;82.00;;;;;;5089737;28;20454;-77
2023/09/22 00:35:40;;;;;;;5.00;1.00;;;18.80;82.00;;;;;;5088217;28;20464;-78
2023/09/22 00:38:07;;;;;;;4.30;1.33;;;18.80;82.10;;;;;;5082307;28;20475;-78
2023/09/22 00:40:35;;;;;;;3.60;1.10;;;18.80;82.10;;;;;;5089308;28;20794;-78
2023/09/22 00:43:09;;;;;;;3.80;1.10;;;18.80;82.00;;;;;;5089872;28;20874;-79
2023/09/22 00:45:43;;;;;;;3.50;1.00;;;18.80;82.20;;;;;;5086113;28;20502;-78
2023/09/22 00:48:20;;;;;;;4.43;1.10;;;18.80;82.20;;;;;;5070406;28;20457;-78
2023/09/22 00:50:49;;;;;;;3.83;1.20;;;18.70;82.20;;;;;;5093361;28;20447;-78
2023/09/22 00:53:18;;;;;;;4.43;1.10;;;18.70;82.20;;;;;;5093018;28;20448;-79
2023/09/22 00:55:48;;;;;;;3.77;1.30;;;18.70;82.20;;;;;;5089916;28;20548;-78
2023/09/22 00:58:16;;;;;;;3.93;1.07;;;18.70;82.30;;;;;;5091937;28;20476;-78
2023/09/22 01:00:47;;;;;;;4.10;1.20;;;18.70;82.20;;;;;;5087202;28;20483;-79
2023/09/22 01:03:16;;;;;;;3.60;1.20;;;18.70;82.20;;;;;;5088950;28;20782;-78
2023/09/22 01:05:46;;;;;;;4.87;1.43;;;18.70;82.20;;;;;;5083630;28;20445;-78
2023/09/22 01:08:14;;;;;;;5.47;1.20;;;18.70;82.10;;;;;;5068274;28;20468;-79
2023/09/22 01:10:43;;;;;;;4.60;1.40;;;18.70;82.10;;;;;;5086824;28;20562;-78
2023/09/22 01:13:12;;;;;;;4.20;1.20;;;18.70;82.00;;;;;;5067809;28;20476;-78
2023/09/22 01:15:42;;;;;;;3.63;1.10;;;18.70;81.90;;;;;;5087864;28;21224;-78
2023/09/22 01:18:13;;;;;;;5.23;1.27;;;18.70;81.90;;;;;;5088662;28;20481;-78
2023/09/22 01:20:43;;;;;;;4.43;1.20;;;18.70;81.80;;;;;;5069758;28;20860;-78
2023/09/22 01:23:14;;;;;;;4.40;1.20;;;18.60;81.60;;;;;;5083162;28;20983;-78
2023/09/22 01:25:42;;;;;;;4.30;1.30;;;18.60;81.60;;;;;;5085689;28;20490;-78
2023/09/22 01:28:11;;;;;;;4.87;1.27;;;18.60;81.60;;;;;;5088220;28;20472;-78
2023/09/22 01:30:40;;;;;;;3.70;1.10;;;18.60;81.60;;;;;;5068656;28;20605;-78
2023/09/22 01:33:08;;;;;;;8.30;1.30;;;18.60;81.40;;;;;;5070014;28;20828;-79
2023/09/22 01:35:37;;;;;;;4.20;1.30;;;18.60;81.30;;;;;;5082484;28;20456;-78
2023/09/22 01:38:11;;;;;;;5.07;1.17;;;18.50;81.50;;;;;;5076102;28;20508;-78
2023/09/22 01:40:43;;;;;;;4.33;1.27;;;18.60;81.30;;;;;;5069525;28;20539;-77
2023/09/22 01:43:14;;;;;;;3.57;0.90;;;18.60;81.20;;;;;;5069758;28;20547;-80
2023/09/22 01:45:42;;;;;;;3.93;0.90;;;18.50;81.40;;;;;;5087800;28;20460;-77
2023/09/22 01:48:11;;;;;;;4.30;0.90;;;18.60;81.20;;;;;;5084729;28;20460;-77
2023/09/22 01:50:40;;;;;;;6.93;1.20;;;18.60;81.10;;;;;;5086541;28;20916;-77
2023/09/22 01:53:09;;;;;;;3.73;1.30;;;18.60;81.00;;;;;;5087236;28;20459;-77
2023/09/22 01:55:37;;;;;;;4.07;1.23;;;18.60;80.90;;;;;;5082326;28;20492;-77
2023/09/22 01:58:08;;;;;;;4.70;1.33;;;18.60;80.90;;;;;;5080748;28;20470;-77
2023/09/22 02:00:36;;;;;;;3.90;1.00;;;18.50;80.90;;;;;;5083129;28;20469;-78
2023/09/22 02:03:06;;;;;;;3.80;1.00;;;18.50;80.80;;;;;;5069574;28;20482;-76
2023/09/22 02:05:35;;;;;;;3.70;1.00;;;18.50;80.80;;;;;;5066744;28;20452;-77
2023/09/22 02:08:03;;;;;;;6.70;1.50;;;18.50;80.80;;;;;;5068880;28;20455;-77
2023/09/22 02:10:31;;;;;;;6.27;1.30;;;18.50;80.80;;;;;;5067029;28;20548;-78
2023/09/22 02:12:59;;;;;;;5.50;1.30;;;18.50;80.70;;;;;;5085152;28;20473;-79
2023/09/22 02:15:28;;;;;;;5.00;1.03;;;18.50;80.70;;;;;;5082234;28;20517;-76
2023/09/22 02:17:56;;;;;;;4.03;0.90;;;18.50;80.60;;;;;;5084974;28;20489;-79
2023/09/22 02:20:25;;;;;;;3.70;1.00;;;18.50;80.60;;;;;;5084004;28;20445;-77
2023/09/22 02:22:55;;;;;;;4.20;1.17;;;18.40;80.60;;;;;;5084675;28;20449;-78
2023/09/22 02:25:24;;;;;;;3.53;1.00;;;18.40;80.40;;;;;;5093504;28;20465;-78
2023/09/22 02:27:55;;;;;;;4.40;1.43;;;18.40;80.40;;;;;;5087010;28;21224;-79
2023/09/22 02:30:24;;;;;;;6.80;1.33;;;18.40;80.40;;;;;;5100706;28;20463;-78
2023/09/22 02:32:54;;;;;;;4.03;1.17;;;18.40;80.30;;;;;;5068024;28;20456;-78
2023/09/22 02:35:23;;;;;;;4.00;1.20;;;18.40;80.30;;;;;;5083568;28;20457;-77
2023/09/22 02:37:51;;;;;;;4.00;1.20;;;18.30;80.10;;;;;;5085211;28;20453;-79
2023/09/22 02:40:19;;;;;;;3.97;1.03;;;18.30;80.10;;;;;;5069191;28;20445;-78
2023/09/22 02:42:48;;;;;;;4.87;1.10;;;18.30;80.10;;;;;;5067267;28;20452;-77
2023/09/22 02:45:16;;;;;;;4.73;1.30;;;18.20;80.10;;;;;;5084865;28;21341;-79
2023/09/22 02:47:44;;;;;;;6.43;1.57;;;18.20;80.10;;;;;;5084603;28;20484;-78
2023/09/22 02:50:18;;;;;;;5.30;0.90;;;18.20;80.10;;;;;;5070354;28;20480;-78
2023/09/22 02:52:47;;;;;;;4.20;1.13;;;18.20;80.10;;;;;;5083898;28;20986;-78
2023/09/22 02:55:16;;;;;;;4.53;1.03;;;18.20;80.10;;;;;;5065929;28;20568;-78
2023/09/22 02:57:47;;;;;;;3.67;0.87;;;18.20;80.00;;;;;;5080552;28;20461;-78
2023/09/22 03:00:18;;;;;;;5.00;1.10;;;18.30;80.00;;;;;;5079670;28;20463;-77
2023/09/22 03:02:47;;;;;;;5.83;1.20;;;18.30;79.90;;;;;;5086771;28;20463;-77
2023/09/22 03:05:17;;;;;;;3.67;0.90;;;18.30;79.80;;;;;;5086350;28;20469;-78
2023/09/22 03:07:51;;;;;;;5.60;1.20;;;18.20;79.80;;;;;;5071897;28;20467;-77
2023/09/22 03:10:20;;;;;;;3.83;1.17;;;18.20;79.70;;;;;;5077440;28;20453;-78
2023/09/22 03:12:52;;;;;;;4.57;1.10;;;18.20;79.70;;;;;;5078216;28;20567;-77
2023/09/22 03:15:21;;;;;;;5.23;0.90;;;18.10;79.80;;;;;;5064628;28;20565;-77
2023/09/22 03:17:50;;;;;;;7.53;1.60;;;18.10;79.90;;;;;;5083327;28;20472;-78
2023/09/22 03:20:20;;;;;;;4.23;1.10;;;18.10;79.90;;;;;;5087009;28;20488;-78
2023/09/22 03:22:53;;;;;;;4.67;1.17;;;18.10;79.90;;;;;;5084227;28;20456;-77
2023/09/22 03:25:21;;;;;;;3.53;1.03;;;18.10;79.90;;;;;;5085311;28;20543;-77
2023/09/22 03:27:49;;;;;;;4.33;1.03;;;18.10;79.80;;;;;;5088657;28;20449;-77
2023/09/22 03:30:19;;;;;;;4.13;1.10;;;18.00;79.80;;;;;;5090830;28;20467;-80
2023/09/22 03:32:47;;;;;;;4.93;0.83;;;18.00;79.80;;;;;;5086485;28;20482;-77
2023/09/22 03:35:16;;;;;;;3.83;1.00;;;18.00;79.90;;;;;;5091399;28;20481;-79
2023/09/22 03:37:48;;;;;;;4.67;1.20;;;18.00;79.90;;;;;;5108066;28;20985;-79
2023/09/22 03:40:22;;;;;;;3.60;0.90;;;18.00;79.80;;;;;;5107019;28;20575;-77
2023/09/22 03:42:51;;;;;;;3.30;0.80;;;18.00;79.80;;;;;;5107550;28;21004;-78
2023/09/22 03:45:19;;;;;;;4.43;1.30;;;18.00;79.80;;;;;;5087536;28;20488;-79
2023/09/22 03:47:48;;;;;;;5.70;1.30;;;18.10;79.70;;;;;;5086405;28;21476;-78
2023/09/22 03:50:17;;;;;;;4.93;1.40;;;18.10;79.50;;;;;;5104339;28;20978;-78
2023/09/22 03:52:48;;;;;;;4.70;1.00;;;18.10;79.50;;;;;;5106647;28;20536;-78
2023/09/22 03:55:16;;;;;;;3.97;1.07;;;18.00;79.50;;;;;;5102941;28;20444;-80
2023/09/22 03:57:44;;;;;;;5.63;1.20;;;18.00;79.50;;;;;;5095270;28;21352;-78
2023/09/22 04:00:18;;;;;;;4.57;1.20;;;18.00;79.30;;;;;;5104520;27;20483;-78
2023/09/22 04:02:47;;;;;;;3.73;1.07;;;18.00;79.50;;;;;;5090093;28;20464;-79
2023/09/22 04:05:16;;;;;;;5.10;1.27;;;18.00;79.50;;;;;;5093740;28;20535;-79
2023/09/22 04:07:45;;;;;;;6.33;1.23;;;18.00;79.50;;;;;;5104361;28;20452;-77
2023/09/22 04:10:15;;;;;;;4.00;1.30;;;18.00;79.50;;;;;;5091396;28;20444;-79
2023/09/22 04:12:43;;;;;;;4.73;1.27;;;18.00;79.30;;;;;;5090992;28;20452;-78
2023/09/22 04:15:11;;;;;;;9.70;1.00;;;18.00;79.30;;;;;;5100591;28;20463;-77
2023/09/22 04:17:40;;;;;;;3.93;1.03;;;18.00;79.30;;;;;;5092027;28;20923;-78
2023/09/22 04:20:12;;;;;;;4.63;1.37;;;18.00;79.10;;;;;;5108729;28;20515;-80
2023/09/22 04:22:44;;;;;;;4.80;1.60;;;17.90;79.10;;;;;;5107589;28;20551;-77
2023/09/22 04:25:19;;;;;;;6.33;1.30;;;17.90;79.10;;;;;;5108782;28;20984;-78
2023/09/22 04:27:53;;;;;;;4.80;1.00;;;17.90;79.10;;;;;;5105594;28;20545;-77
2023/09/22 04:30:24;;;;;;;7.50;1.50;;;17.90;79.10;;;;;;5102012;28;20447;-78
2023/09/22 04:32:53;;;;;;;3.90;1.00;;;17.90;79.10;;;;;;5101203;28;20459;-80
2023/09/22 04:35:27;;;;;;;3.57;1.00;;;17.90;79.00;;;;;;5102295;28;20445;-77
2023/09/22 04:37:55;;;;;;;7.50;1.53;;;17.90;79.00;;;;;;5109414;28;20493;-78
2023/09/22 04:40:25;;;;;;;4.07;1.10;;;17.80;79.10;;;;;;5110311;28;20486;-78
2023/09/22 04:42:54;;;;;;;7.83;1.30;;;17.80;79.10;;;;;;5106198;28;20499;-79
2023/09/22 04:45:22;;;;;;;4.57;1.30;;;17.80;79.20;;;;;;5110340;28;20859;-78
2023/09/22 04:47:51;;;;;;;5.03;1.40;;;17.80;79.20;;;;;;5109883;28;20452;-78
2023/09/22 04:50:21;;;;;;;4.90;1.60;;;17.80;79.20;;;;;;5106464;28;20486;-78
2023/09/22 04:52:50;;;;;;;4.17;1.27;;;17.80;79.10;;;;;;5104435;28;20449;-79
2023/09/22 04:55:20;;;;;;;4.17;1.20;;;17.70;79.20;;;;;;5107824;28;20463;-79
2023/09/22 04:57:49;;;;;;;4.03;1.13;;;17.70;79.30;;;;;;5105429;28;20440;-79
2023/09/22 05:00:21;;;;;;;4.87;1.00;;;17.80;79.30;;;;;;5102803;28;20503;-79
2023/09/22 05:02:50;;;;;;;4.47;1.77;;;17.80;79.30;;;;;;5087541;28;20610;-79
2023/09/22 05:05:19;;;;;;;4.00;1.30;;;17.80;79.30;;;;;;5090172;28;20847;-79
2023/09/22 05:07:47;;;;;;;5.00;1.23;;;17.80;79.20;;;;;;5086513;28;20461;-78
2023/09/22 05:10:16;;;;;;;4.97;1.60;;;17.80;79.20;;;;;;5090785;28;20452;-77
2023/09/22 05:12:44;;;;;;;3.83;1.30;;;17.80;79.20;;;;;;5088706;28;20458;-78
2023/09/22 05:15:14;;;;;;;5.47;1.30;;;17.80;79.20;;;;;;5086593;28;20461;-78
2023/09/22 05:17:42;;;;;;;5.20;1.70;;;17.80;79.10;;;;;;5087708;28;20460;-78
2023/09/22 05:20:16;;;;;;;4.43;1.37;;;17.80;79.10;;;;;;5090379;28;21025;-78
2023/09/22 05:22:44;;;;;;;8.23;1.83;;;17.80;79.10;;;;;;5089441;28;21017;-79
2023/09/22 05:25:14;;;;;;;4.20;1.50;;;17.80;79.10;;;;;;5095070;28;20929;-79
2023/09/22 05:27:45;;;;;;;6.67;1.50;;;17.80;79.10;;;;;;5089764;28;20460;-78
2023/09/22 05:30:15;;;;;;;5.57;1.77;;;17.80;79.10;;;;;;5086166;28;20448;-79
2023/09/22 05:32:43;;;;;;;5.83;1.60;;;17.80;79.10;;;;;;5085946;28;20456;-79
2023/09/22 05:35:12;;;;;;;6.17;1.60;;;17.80;79.00;;;;;;5088350;28;20453;-79
2023/09/22 05:37:40;;;;;;;3.70;1.27;;;17.70;79.00;;;;;;5085017;28;20973;-78
2023/09/22 05:40:12;;;;;;;4.50;1.57;;;17.70;78.90;;;;;;5085622;28;20469;-78
2023/09/22 05:42:42;;;;;;;4.33;1.40;;;17.70;79.00;;;;;;5084088;28;20456;-79
2023/09/22 05:45:11;;;;;;;4.73;1.70;;;17.70;79.10;;;;;;5089229;28;20535;-79
2023/09/22 05:47:41;;;;;;;4.33;1.50;;;17.70;79.10;;;;;;5087651;28;20452;-78
2023/09/22 05:50:10;;;;;;;4.73;1.33;;;17.70;79.20;;;;;;5092234;28;20443;-79
2023/09/22 05:52:39;;;;;;;4.97;1.50;;;17.70;79.20;;;;;;5094422;28;20543;-79
2023/09/22 05:55:12;;;;;;;6.40;1.80;;;17.70;79.30;;;;;;5086740;28;21026;-78
2023/09/22 05:57:40;;;;;;;4.33;1.70;;;17.70;79.20;;;;;;5087857;28;20505;-78
2023/09/22 06:00:15;;;;;;;6.43;1.70;;;17.80;79.20;;;;;;5086363;28;21032;-78
2023/09/22 06:02:49;;;;;;;6.63;2.20;;;17.80;79.20;;;;;;5108509;28;20448;-78
2023/09/22 06:05:18;;;;;;;7.23;1.83;;;17.80;79.20;;;;;;5107343;28;20444;-78
2023/09/22 06:07:47;;;;;;;6.40;2.00;;;17.80;79.20;;;;;;5090314;28;20471;-79
2023/09/22 06:10:15;;;;;;;5.33;1.73;;;17.80;79.20;;;;;;5103088;28;20466;-78
2023/09/22 06:12:44;;;;;;;6.17;2.00;;;17.80;79.30;;;;;;5088763;28;21187;-79
2023/09/22 06:15:13;;;;;;;4.27;1.80;;;17.80;79.30;;;;;;5089753;28;20786;-79
2023/09/22 06:17:41;;;;;;;6.50;2.10;;;17.80;79.30;;;;;;5106312;28;20455;-78
2023/09/22 06:20:15;;;;;;;4.70;2.03;;;17.70;79.40;;;;;;5102624;28;20967;-78
2023/09/22 06:22:45;;;;;;;6.27;2.10;;;17.80;79.50;;;;;;5086236;28;20448;-78
2023/09/22 06:25:14;;;;;;;4.60;1.70;;;17.80;79.50;;;;;;5083895;28;20448;-78
2023/09/22 06:27:43;;;;;;;5.97;2.27;;;17.80;79.50;;;;;;5105851;28;20466;-78
2023/09/22 06:30:12;;;;;;;5.83;1.60;;;17.80;79.40;;;;;;5103669;28;20450;-78
2023/09/22 06:32:42;;;;;;;4.10;1.63;;;17.80;79.50;;;;;;5085007;28;20460;-79
2023/09/22 06:35:12;;;;;;;5.37;1.87;;;17.80;79.50;;;;;;5086256;28;20471;-78
2023/09/22 06:37:41;;;;;;;8.80;2.10;;;17.80;79.60;;;;;;5088233;28;21042;-79
2023/09/22 06:40:12;;;;;;;5.50;2.27;;;17.80;79.50;;;;;;5085211;28;20444;-78
2023/09/22 06:42:41;;;;;;;5.47;2.17;;;17.80;79.60;;;;;;5085588;28;20472;-79
2023/09/22 06:45:12;;;;;;;7.30;2.27;;;17.70;79.60;;;;;;5083307;28;20465;-78
2023/09/22 06:47:41;;;;;;;4.60;2.00;;;17.70;79.80;;;;;;5069447;28;20518;-78
2023/09/22 06:50:11;;;;;;;6.37;2.10;;;17.80;79.80;;;;;;5083513;28;21619;-78
2023/09/22 06:52:40;;;;;;;4.80;2.50;;;17.80;79.80;;;;;;5086841;28;20453;-78
2023/09/22 06:55:14;;;;;;;8.30;2.40;;;17.80;79.80;;;;;;5065084;28;20891;-78
2023/09/22 06:57:43;;;;;;;7.13;2.37;;;17.80;79.80;;;;;;5080423;28;20460;-80
2023/09/22 07:00:18;;;;;;;7.20;2.07;;;17.80;79.90;;;;;;5086768;28;20464;-79
2023/09/22 07:02:48;;;;;;;5.90;2.13;;;17.90;80.00;;;;;;5082076;28;20784;-79
2023/09/22 07:05:19;;;;;;;6.97;2.33;;;17.90;80.00;;;;;;5091174;28;20502;-80
2023/09/22 07:07:49;;;;;;;4.63;2.30;;;17.90;80.10;;;;;;5071491;28;20484;-79
2023/09/22 07:10:18;;;;;;;5.87;2.10;;;17.90;80.10;;;;;;5087767;28;20457;-80
2023/09/22 07:12:46;;;;;;;5.00;2.33;;;17.90;80.10;;;;;;5091455;28;20457;-79
2023/09/22 07:15:14;;;;;;;6.00;2.20;;;17.90;80.10;;;;;;5091383;28;20544;-79
2023/09/22 07:17:43;;;;;;;4.37;1.90;;;17.90;80.30;;;;;;5092095;28;20514;-79
2023/09/22 07:20:14;;;;;;;4.90;2.17;;;18.00;80.30;;;;;;5073535;28;20465;-81
2023/09/22 07:22:44;;;;;;;5.57;1.90;;;18.00;80.20;;;;;;5087571;28;20457;-80
2023/09/22 07:25:13;;;;;;;4.70;1.87;;;18.00;80.30;;;;;;5087506;28;20527;-79
2023/09/22 07:27:44;;;;;;;4.47;1.60;;;18.00;80.40;;;;;;5091890;28;20460;-80
2023/09/22 07:30:13;;;;;;;5.50;1.93;;;18.00;80.50;;;;;;5091529;28;20719;-79
2023/09/22 07:32:43;;;;;;;6.80;1.67;;;18.00;80.50;;;;;;5113084;28;20444;-79
2023/09/22 07:35:11;;;;;;;6.30;1.97;;;17.90;80.50;;;;;;5110215;28;21010;-80
2023/09/22 07:37:39;;;;;;;4.33;1.37;;;18.00;80.50;;;;;;5107595;28;20444;-80
2023/09/22 07:40:19;;;;;;;4.60;1.77;;;18.00;80.60;;;;;;5110286;28;20450;-79
2023/09/22 07:42:47;;;;;;;4.40;1.40;;;18.00;80.60;;;;;;5092749;28;21177;-79
2023/09/22 07:45:15;;;;;;;7.00;1.67;;;17.90;80.60;;;;;;5093582;28;20835;-79
2023/09/22 07:47:43;;;;;;;3.80;1.00;;;17.90;80.70;;;;;;5109193;28;20448;-80
2023/09/22 07:50:11;;;;;;;7.60;1.70;;;18.00;80.70;;;;;;5092912;28;20565;-80
2023/09/22 07:52:42;;;;;;;4.30;1.33;;;18.00;80.80;;;;;;5102844;28;20444;-80
2023/09/22 07:55:14;;;;;;;6.90;1.50;;;18.10;80.70;;;;;;5093765;28;20841;-80
2023/09/22 07:57:48;;;;;;;5.40;1.27;;;18.10;80.60;;;;;;5111151;28;20520;-79
2023/09/22 08:00:19;;;;;;;4.40;1.57;;;18.20;80.60;;;;;;5088475;28;20456;-79
2023/09/22 08:02:49;;;;;;;6.87;1.50;;;18.20;80.50;;;;;;5112390;28;20542;-79
2023/09/22 08:05:18;;;;;;;6.27;1.30;;;18.30;80.50;;;;;;5109024;28;20458;-80
2023/09/22 08:07:47;;;;;;;4.60;1.43;;;18.30;80.50;;;;;;5092886;28;20463;-79
2023/09/22 08:10:15;;;;;;;4.93;2.07;;;18.30;80.40;;;;;;5111410;28;20463;-79
2023/09/22 08:12:45;;;;;;;6.57;1.40;;;18.30;80.60;;;;;;5107717;28;20470;-79
2023/09/22 08:15:14;;;;;;;5.00;1.53;;;18.40;80.80;;;;;;5110657;28;20448;-80
2023/09/22 08:17:43;;;;;;;4.83;1.23;;;18.40;80.70;;;;;;5109874;28;20450;-80
2023/09/22 08:20:13;;;;;;;7.07;1.33;;;18.50;80.60;;;;;;5099688;28;20501;-79
2023/09/22 08:22:42;;;;;;;6.63;1.47;;;18.50;80.50;;;;;;5084826;28;20513;-79
2023/09/22 08:25:11;;;;;;;4.33;1.30;;;18.40;80.50;;;;;;5109989;28;20470;-79
2023/09/22 08:27:40;;;;;;;4.37;1.10;;;18.40;80.50;;;;;;5104012;28;20463;-79
2023/09/22 08:30:12;;;;;;;4.90;1.33;;;18.40;80.60;;;;;;5106464;28;20447;-80
2023/09/22 08:32:42;;;;;;;6.60;1.47;;;18.40;80.60;;;;;;5106687;28;21019;-78
2023/09/22 08:35:13;;;;;;;4.23;1.20;;;18.40;80.60;;;;;;5105739;28;20580;-77
2023/09/22 08:37:42;;;;;;;4.67;1.40;;;18.40;80.60;;;;;;5106064;28;20489;-77
2023/09/22 08:40:14;;;;;;;3.80;1.10;;;18.50;80.60;;;;;;5109832;28;20467;-78
2023/09/22 08:42:52;;;;;;;4.03;1.23;;;18.50;80.60;;;;;;5089574;28;20480;-79
2023/09/22 08:45:25;;;;;;;4.20;1.20;;;18.50;80.50;;;;;;5091907;28;20460;-78
2023/09/22 08:47:54;;;;;;;7.83;1.23;;;18.50;80.50;;;;;;5110328;28;20455;-78
2023/09/22 08:50:22;;;;;;;4.00;1.10;;;18.50;80.50;;;;;;5091121;28;20498;-77
2023/09/22 08:52:52;;;;;;;4.90;1.43;;;18.50;80.50;;;;;;5109244;28;20452;-78
2023/09/22 08:55:21;;;;;;;6.43;1.50;;;18.50;80.40;;;;;;5108267;28;20491;-77
2023/09/22 08:57:52;;;;;;;4.97;1.20;;;18.40;80.30;;;;;;5090220;28;20880;-78
2023/09/22 09:00:23;;;;;;;5.50;1.20;;;18.40;80.40;;;;;;5107830;28;20456;-78
2023/09/22 09:02:53;;;;;;;6.53;1.77;;;18.40;80.40;;;;;;5089540;28;20496;-78
2023/09/22 09:05:23;;;;;;;4.40;0.90;;;18.40;80.40;;;;;;5083477;28;20901;-78
2023/09/22 09:07:52;;;;;;;4.07;1.30;;;18.50;80.40;;;;;;5083299;28;20515;-78
2023/09/22 09:10:29;;;;;;;4.83;1.37;;;18.50;80.30;;;;;;5074370;28;20471;-78
2023/09/22 09:13:01;;;;;;;4.50;1.50;;;18.50;80.30;;;;;;5062534;28;20540;-78
2023/09/22 09:15:30;;;;;;;7.93;1.40;;;18.50;80.30;;;;;;5067486;28;20537;-78
2023/09/22 09:18:08;;;;;;;7.00;1.30;;;18.50;80.20;;;;;;5083670;28;20460;-77
2023/09/22 09:20:40;;;;;;;8.17;1.40;;;18.60;80.10;;;;;;5079437;28;20464;-78
2023/09/22 09:23:16;;;;;;;5.53;1.20;;;18.60;80.10;;;;;;5083016;28;20502;-79
2023/09/22 09:25:46;;;;;;;4.20;1.23;;;18.60;80.10;;;;;;5088526;28;20456;-80
2023/09/22 09:28:16;;;;;;;8.40;1.37;;;18.70;80.10;;;;;;5094906;28;20954;-79
2023/09/22 09:30:51;;;;;;;5.73;1.13;;;18.70;79.80;;;;;;5080178;28;20470;-80
2023/09/22 09:33:25;;;;;;;6.00;0.90;;;18.70;79.80;;;;;;5104274;28;20440;-79
2023/09/22 09:35:55;;;;;;;4.27;1.33;;;18.60;79.70;;;;;;5108415;28;20454;-79
2023/09/22 09:38:26;;;;;;;4.53;1.30;;;18.70;79.70;;;;;;5088600;28;21147;-79
2023/09/22 09:40:55;;;;;;;3.87;1.17;;;18.70;79.70;;;;;;5107961;28;20444;-79
2023/09/22 09:43:23;;;;;;;5.70;1.00;;;18.70;79.70;;;;;;5110024;28;20479;-80
2023/09/22 09:45:56;;;;;;;5.63;1.00;;;18.70;79.50;;;;;;5108267;28;20816;-80
2023/09/22 09:48:27;;;;;;;5.73;1.10;;;18.70;79.40;;;;;;5107313;28;20451;-79
2023/09/22 09:50:57;;;;;;;5.27;1.40;;;18.80;79.50;;;;;;5110176;28;20440;-80
2023/09/22 09:53:38;;;;;;;5.40;1.50;;;18.80;79.40;;;;;;5092292;28;21172;-80
2023/09/22 09:56:09;;;;;;;4.70;1.00;;;18.80;79.40;;;;;;5089562;28;20456;-80
2023/09/22 09:58:39;;;;;;;4.50;1.00;;;18.80;79.40;;;;;;5109697;28;20483;-80
2023/09/22 10:01:07;;;;;;;3.97;0.70;;;18.90;79.20;;;;;;5109261;28;20490;-79
2023/09/22 10:03:39;;;;;;;5.17;1.30;;;18.80;79.00;;;;;;5106149;28;20520;-80
2023/09/22 10:06:12;;;;;;;4.53;1.10;;;18.80;78.90;;;;;;5108761;28;20450;-80
2023/09/22 10:08:41;;;;;;;3.60;0.93;;;18.80;79.00;;;;;;5104449;28;21069;-80
2023/09/22 10:11:12;;;;;;;5.30;1.47;;;18.80;79.00;;;;;;5109251;28;20466;-80
2023/09/22 10:13:40;;;;;;;6.83;0.90;;;18.90;79.00;;;;;;5102092;27;20588;-80
2023/09/22 10:16:09;;;;;;;8.57;1.40;;;18.90;78.90;;;;;;5107183;28;20456;-79
2023/09/22 10:18:46;;;;;;;4.40;1.07;;;18.90;78.80;;;;;;5109371;28;20810;-80
2023/09/22 10:21:43;;;;;;;4.90;1.30;;;19.00;78.80;;;;;;5089320;28;20452;-80
2023/09/22 10:24:20;;;;;;;6.40;1.03;;;19.00;78.70;;;;;;5103807;28;20503;-79
2023/09/22 10:27:08;;;;;;;3.97;1.03;;;19.00;78.60;;;;;;5104321;28;20546;-79
2023/09/22 10:29:51;;;;;;;4.10;1.20;;;19.00;78.20;;;;;;5104266;28;20455;-81
2023/09/22 10:32:26;;;;;;;6.93;1.40;;;19.00;78.30;;;;;;5107604;28;20587;-79
2023/09/22 10:35:00;;;;;;;3.80;0.70;;;19.00;78.20;;;;;;5107390;28;20504;-80
2023/09/22 10:37:31;;;;;;;5.00;1.10;;;19.00;78.20;;;;;;5111078;28;20443;-80
2023/09/22 10:40:08;;;;;;;3.43;0.70;;;19.00;78.20;;;;;;5113002;28;20454;-80
2023/09/22 10:42:42;;;;;;;3.30;0.77;;;19.10;78.20;;;;;;5090010;28;20487;-80
2023/09/22 10:45:13;;;;;;;3.50;0.90;;;19.10;78.10;;;;;;5093705;28;20459;-79
2023/09/22 10:47:43;;;;;;;5.87;0.90;;;19.10;78.20;;;;;;5112377;28;20474;-80
2023/09/22 10:50:17;;;;;;;4.10;0.93;;;19.10;78.10;;;;;;5093388;28;20452;-80
2023/09/22 10:52:57;;;;;;;4.40;1.13;;;19.10;78.10;;;;;;5108098;28;20475;-79
2023/09/22 10:55:27;;;;;;;5.20;1.27;;;19.10;78.00;;;;;;5104147;28;20456;-79
2023/09/22 10:57:55;;;;;;;3.70;1.00;;;19.10;78.20;;;;;;5101977;28;20460;-79
2023/09/22 11:00:26;;;;;;;3.93;0.73;;;19.20;78.10;;;;;;5106590;28;20471;-79
2023/09/22 11:02:54;;;;;;;4.57;1.17;;;19.20;78.10;;;;;;5105228;28;20863;-80
2023/09/22 11:05:24;;;;;;;4.53;1.17;;;19.30;78.00;;;;;;5110167;28;22131;-80
2023/09/22 11:07:52;;;;;;;6.70;1.10;;;19.30;77.90;;;;;;5107123;28;20455;-79
2023/09/22 11:10:21;;;;;;;4.13;0.83;;;19.30;77.80;;;;;;5109456;28;20471;-80
2023/09/22 11:12:50;;;;;;;7.23;1.30;;;19.30;77.70;;;;;;5092004;28;20468;-79
2023/09/22 11:15:19;;;;;;;4.30;1.13;;;19.30;77.70;;;;;;5110314;28;20937;-79
2023/09/22 11:17:48;;;;;;;5.27;0.90;;;19.30;77.70;;;;;;5107110;28;20461;-80
2023/09/22 11:20:22;;;;;;;7.20;1.33;;;19.40;77.70;;;;;;5109992;28;20545;-78
2023/09/22 11:22:53;;;;;;;5.70;1.73;;;19.40;77.50;;;;;;5106778;28;20544;-79
2023/09/22 11:25:22;;;;;;;4.00;1.00;;;19.40;77.50;;;;;;5107076;28;21014;-79
2023/09/22 11:27:52;;;;;;;4.20;0.90;;;19.40;77.40;;;;;;5096433;28;20449;-80
2023/09/22 11:30:25;;;;;;;4.80;2.27;;;19.40;77.20;;;;;;5106906;28;21306;-80
2023/09/22 11:32:54;;;;;;;4.73;1.20;;;19.40;77.00;;;;;;5107776;28;20436;-79
2023/09/22 11:35:37;;;;;;;3.73;0.63;;;19.40;77.10;;;;;;5091812;28;20444;-80
2023/09/22 11:38:27;;;;;;;4.47;0.90;;;19.50;77.10;;;;;;5110432;28;20451;-79
2023/09/22 11:41:08;;;;;;;3.80;0.83;;;19.50;77.10;;;;;;5104003;28;20459;-80
2023/09/22 11:43:41;;;;;;;6.70;1.47;;;19.50;76.90;;;;;;5105913;28;20471;-78
2023/09/22 11:46:11;;;;;;;5.40;1.40;;;19.50;76.90;;;;;;5111271;28;20479;-81
2023/09/22 11:48:52;;;;;;;4.40;1.07;;;19.60;76.90;;;;;;5109877;28;20478;-79
2023/09/22 11:51:20;;;;;;;4.20;0.93;;;19.60;76.70;;;;;;5109298;28;20546;-79
2023/09/22 11:53:50;;;;;;;4.10;0.93;;;19.70;76.70;;;;;;5103718;28;20949;-79
2023/09/22 11:56:18;;;;;;;6.80;1.60;;;19.70;76.60;;;;;;5108343;28;20440;-80
2023/09/22 11:58:46;;;;;;;7.50;1.30;;;19.80;76.40;;;;;;5110052;28;20436;-79
2023/09/22 12:01:14;;;;;;;3.70;0.90;;;19.80;76.40;;;;;;5111414;28;20502;-80
2023/09/22 12:03:44;;;;;;;4.57;1.00;;;19.90;76.20;;;;;;5107340;28;20712;-78
2023/09/22 12:06:15;;;;;;;4.87;0.90;;;19.90;76.20;;;;;;5109405;28;20890;-79
2023/09/22 12:08:43;;;;;;;3.33;0.60;;;20.00;76.20;;;;;;5102425;28;20460;-80
2023/09/22 12:11:12;;;;;;;6.67;0.83;;;20.10;75.90;;;;;;5104632;28;20454;-79
2023/09/22 12:13:42;;;;;;;5.93;1.00;;;20.10;75.60;;;;;;5111454;28;20510;-79
2023/09/22 12:16:11;;;;;;;3.70;0.90;;;20.20;75.50;;;;;;5107610;28;20458;-79
2023/09/22 12:18:39;;;;;;;4.80;0.60;;;20.20;75.20;;;;;;5093280;28;20444;-79
2023/09/22 12:21:07;;;;;;;3.67;0.70;;;20.20;74.90;;;;;;5107050;28;20454;-79
2023/09/22 12:23:35;;;;;;;3.77;0.80;;;20.10;74.30;;;;;;5109060;28;20469;-80
2023/09/22 12:26:05;;;;;;;6.03;0.80;;;20.00;74.30;;;;;;5085496;28;20444;-79
2023/09/22 12:28:34;;;;;;;3.93;0.70;;;20.00;74.20;;;;;;5109361;28;20485;-79
2023/09/22 12:31:02;;;;;;;4.90;1.00;;;20.00;74.20;;;;;;5108663;28;20470;-81
2023/09/22 12:33:31;;;;;;;4.57;0.90;;;20.00;74.20;;;;;;5111580;28;20942;-79
2023/09/22 12:35:59;;;;;;;5.73;0.90;;;20.00;74.20;;;;;;5111570;28;20555;-79
2023/09/22 12:38:26;;;;;;;3.50;0.80;;;20.00;74.20;;;;;;5111302;28;20458;-79
2023/09/22 12:40:56;;;;;;;4.17;0.67;;;20.10;74.00;;;;;;5101288;28;20535;-80
2023/09/22 12:43:24;;;;;;;3.77;0.57;;;20.10;73.70;;;;;;5094192;28;20478;-80
2023/09/22 12:45:54;;;;;;;5.33;1.27;;;20.10;73.40;;;;;;5091196;28;20459;-80
2023/09/22 12:48:22;;;;;;;3.80;0.80;;;20.10;73.60;;;;;;5109519;28;20484;-80
2023/09/22 12:50:55;;;;;;;4.50;0.83;;;20.10;73.60;;;;;;5106454;28;20459;-81
2023/09/22 12:53:25;;;;;;;4.57;1.10;;;20.10;73.40;;;;;;5100861;28;20454;-80
2023/09/22 12:55:57;;;;;;;4.90;0.70;;;20.10;73.30;;;;;;5086780;28;21017;-80
2023/09/22 12:58:27;;;;;;;3.87;0.80;;;20.10;73.00;;;;;;5089216;28;20497;-79
2023/09/22 13:00:58;;;;;;;4.60;0.70;;;20.00;72.90;;;;;;5106198;28;20488;-79
2023/09/22 13:03:26;;;;;;;8.20;1.30;;;20.00;72.90;;;;;;5107249;28;20543;-81